sensor_id;sensor_type;location;lat;lon;timestamp;P1;durP1;ratioP1;P2;durP2;ratioP2
11004;SDS011;5555;59.622;16.556;2023-05-07T00:01:50;2.43;;;2.20;;
11004;SDS011;5555;59.622;16.556;2023-05-07T00:04:16;3.17;;;2.80;;
11004;SDS011;5555;59.622;16.556;2023-05-07T00:06:42;3.80;;;2.57;;
11004;SDS011;5555;59.622;16.556;2023-05-07T00:09:08;3.97;;;2.43;;
11004;SDS011;5555;59.622;16.556;2023-05-07T00:11:33;2.97;;;2.67;;
11004;SDS011;5555;59.622;16.556;2023-05-07T00:13:59;3.00;;;2.70;;
11004;SDS011;5555;59.622;16.556;2023-05-07T00:16:25;3.57;;;2.40;;
11004;SDS011;5555;59.622;16.556;2023-05-07T00:18:51;3.10;;;2.80;;
11004;SDS011;5555;59.622;16.556;2023-05-07T00:21:17;4.63;;;3.13;;
11004;SDS011;5555;59.622;16.556;2023-05-07T00:23:43;4.67;;;2.93;;
11004;SDS011;5555;59.622;16.556;2023-05-07T00:26:08;3.40;;;2.73;;
11004;SDS011;5555;59.622;16.556;2023-05-07T00:28:34;5.43;;;3.07;;
11004;SDS011;5555;59.622;16.556;2023-05-07T00:31:00;4.10;;;2.83;;
11004;SDS011;5555;59.622;16.556;2023-05-07T00:33:25;3.67;;;3.00;;
11004;SDS011;5555;59.622;16.556;2023-05-07T00:35:52;4.23;;;2.97;;
11004;SDS011;5555;59.622;16.556;2023-05-07T00:38:19;3.67;;;3.23;;
11004;SDS011;5555;59.622;16.556;2023-05-07T00:40:44;5.57;;;3.77;;
11004;SDS011;5555;59.622;16.556;2023-05-07T00:43:10;4.57;;;3.60;;
11004;SDS011;5555;59.622;16.556;2023-05-07T00:45:37;4.13;;;3.10;;
11004;SDS011;5555;59.622;16.556;2023-05-07T00:48:03;4.47;;;3.30;;
11004;SDS011;5555;59.622;16.556;2023-05-07T00:50:30;6.03;;;3.27;;
11004;SDS011;5555;59.622;16.556;2023-05-07T00:52:57;5.03;;;3.40;;
11004;SDS011;5555;59.622;16.556;2023-05-07T00:55:24;6.33;;;3.50;;
11004;SDS011;5555;59.622;16.556;2023-05-07T00:57:50;4.43;;;3.40;;
11004;SDS011;5555;59.622;16.556;2023-05-07T01:00:16;6.53;;;3.63;;
11004;SDS011;5555;59.622;16.556;2023-05-07T01:02:43;7.20;;;3.83;;
11004;SDS011;5555;59.622;16.556;2023-05-07T01:05:09;5.50;;;3.27;;
11004;SDS011;5555;59.622;16.556;2023-05-07T01:07:40;7.17;;;3.63;;
11004;SDS011;5555;59.622;16.556;2023-05-07T01:10:06;6.23;;;3.93;;
11004;SDS011;5555;59.622;16.556;2023-05-07T01:12:34;4.57;;;3.37;;
11004;SDS011;5555;59.622;16.556;2023-05-07T01:15:02;5.97;;;3.60;;
11004;SDS011;5555;59.622;16.556;2023-05-07T01:17:29;8.53;;;4.00;;
11004;SDS011;5555;59.622;16.556;2023-05-07T01:19:58;4.20;;;3.60;;
11004;SDS011;5555;59.622;16.556;2023-05-07T01:22:33;7.47;;;4.07;;
11004;SDS011;5555;59.622;16.556;2023-05-07T01:24:59;5.10;;;3.33;;
11004;SDS011;5555;59.622;16.556;2023-05-07T01:27:26;5.97;;;3.63;;
11004;SDS011;5555;59.622;16.556;2023-05-07T01:29:52;5.40;;;3.47;;
11004;SDS011;5555;59.622;16.556;2023-05-07T01:35:02;6.30;;;3.83;;
11004;SDS011;5555;59.622;16.556;2023-05-07T01:37:30;11.43;;;4.00;;
11004;SDS011;5555;59.622;16.556;2023-05-07T01:39:55;6.10;;;4.23;;
11004;SDS011;5555;59.622;16.556;2023-05-07T01:42:22;5.07;;;3.97;;
11004;SDS011;5555;59.622;16.556;2023-05-07T01:44:48;6.10;;;4.03;;
11004;SDS011;5555;59.622;16.556;2023-05-07T01:47:14;5.83;;;3.77;;
11004;SDS011;5555;59.622;16.556;2023-05-07T01:49:40;6.20;;;4.07;;
11004;SDS011;5555;59.622;16.556;2023-05-07T01:52:07;9.57;;;4.27;;
11004;SDS011;5555;59.622;16.556;2023-05-07T01:54:34;6.40;;;4.53;;
11004;SDS011;5555;59.622;16.556;2023-05-07T01:57:00;6.83;;;4.00;;
11004;SDS011;5555;59.622;16.556;2023-05-07T01:59:26;7.70;;;4.37;;
11004;SDS011;5555;59.622;16.556;2023-05-07T02:01:52;6.63;;;4.30;;
11004;SDS011;5555;59.622;16.556;2023-05-07T02:04:17;7.20;;;4.40;;
11004;SDS011;5555;59.622;16.556;2023-05-07T02:06:43;11.00;;;4.70;;
11004;SDS011;5555;59.622;16.556;2023-05-07T02:09:08;7.10;;;4.47;;
11004;SDS011;5555;59.622;16.556;2023-05-07T02:11:34;8.77;;;4.10;;
11004;SDS011;5555;59.622;16.556;2023-05-07T02:14:00;7.87;;;4.40;;
11004;SDS011;5555;59.622;16.556;2023-05-07T02:16:25;11.60;;;4.97;;
11004;SDS011;5555;59.622;16.556;2023-05-07T02:18:51;11.97;;;4.93;;
11004;SDS011;5555;59.622;16.556;2023-05-07T02:21:17;6.10;;;4.20;;
11004;SDS011;5555;59.622;16.556;2023-05-07T02:23:42;5.97;;;4.43;;
11004;SDS011;5555;59.622;16.556;2023-05-07T02:26:08;5.73;;;4.67;;
11004;SDS011;5555;59.622;16.556;2023-05-07T02:28:33;8.93;;;4.93;;
11004;SDS011;5555;59.622;16.556;2023-05-07T02:31:02;5.57;;;4.63;;
11004;SDS011;5555;59.622;16.556;2023-05-07T02:33:28;5.30;;;4.23;;
11004;SDS011;5555;59.622;16.556;2023-05-07T02:35:54;7.10;;;4.03;;
11004;SDS011;5555;59.622;16.556;2023-05-07T02:38:20;8.10;;;4.40;;
11004;SDS011;5555;59.622;16.556;2023-05-07T02:40:45;8.80;;;5.33;;
11004;SDS011;5555;59.622;16.556;2023-05-07T02:43:11;9.23;;;4.77;;
11004;SDS011;5555;59.622;16.556;2023-05-07T02:45:37;5.10;;;4.50;;
11004;SDS011;5555;59.622;16.556;2023-05-07T02:48:03;5.17;;;3.97;;
11004;SDS011;5555;59.622;16.556;2023-05-07T02:50:29;8.37;;;5.13;;
11004;SDS011;5555;59.622;16.556;2023-05-07T02:52:54;8.43;;;4.67;;
11004;SDS011;5555;59.622;16.556;2023-05-07T02:55:20;9.37;;;4.93;;
11004;SDS011;5555;59.622;16.556;2023-05-07T02:57:46;5.83;;;4.67;;
11004;SDS011;5555;59.622;16.556;2023-05-07T03:00:13;5.37;;;4.20;;
11004;SDS011;5555;59.622;16.556;2023-05-07T03:02:39;7.57;;;4.43;;
11004;SDS011;5555;59.622;16.556;2023-05-07T03:05:05;7.47;;;4.30;;
11004;SDS011;5555;59.622;16.556;2023-05-07T03:07:32;7.20;;;4.10;;
11004;SDS011;5555;59.622;16.556;2023-05-07T03:09:57;6.13;;;4.83;;
11004;SDS011;5555;59.622;16.556;2023-05-07T03:12:23;6.30;;;4.77;;
11004;SDS011;5555;59.622;16.556;2023-05-07T03:14:48;9.17;;;4.97;;
11004;SDS011;5555;59.622;16.556;2023-05-07T03:17:14;9.23;;;5.07;;
11004;SDS011;5555;59.622;16.556;2023-05-07T03:19:41;11.40;;;5.27;;
11004;SDS011;5555;59.622;16.556;2023-05-07T03:22:06;6.40;;;4.80;;
11004;SDS011;5555;59.622;16.556;2023-05-07T03:24:32;7.60;;;4.40;;
11004;SDS011;5555;59.622;16.556;2023-05-07T03:26:58;6.53;;;4.63;;
11004;SDS011;5555;59.622;16.556;2023-05-07T03:29:23;9.20;;;5.53;;
11004;SDS011;5555;59.622;16.556;2023-05-07T03:31:49;6.30;;;4.47;;
11004;SDS011;5555;59.622;16.556;2023-05-07T03:34:15;6.63;;;4.57;;
11004;SDS011;5555;59.622;16.556;2023-05-07T03:36:42;4.77;;;4.27;;
11004;SDS011;5555;59.622;16.556;2023-05-07T03:39:07;6.57;;;4.30;;
11004;SDS011;5555;59.622;16.556;2023-05-07T03:41:33;5.70;;;4.37;;
11004;SDS011;5555;59.622;16.556;2023-05-07T03:43:59;6.33;;;3.97;;
11004;SDS011;5555;59.622;16.556;2023-05-07T03:46:24;5.77;;;4.47;;
11004;SDS011;5555;59.622;16.556;2023-05-07T03:48:51;6.00;;;4.53;;
11004;SDS011;5555;59.622;16.556;2023-05-07T03:51:17;7.40;;;4.60;;
11004;SDS011;5555;59.622;16.556;2023-05-07T03:53:42;6.63;;;4.57;;
11004;SDS011;5555;59.622;16.556;2023-05-07T03:56:08;6.73;;;4.37;;
11004;SDS011;5555;59.622;16.556;2023-05-07T03:58:34;9.27;;;4.40;;
11004;SDS011;5555;59.622;16.556;2023-05-07T04:01:00;11.53;;;4.57;;
11004;SDS011;5555;59.622;16.556;2023-05-07T04:03:26;7.27;;;4.43;;
11004;SDS011;5555;59.622;16.556;2023-05-07T04:05:51;7.57;;;4.60;;
11004;SDS011;5555;59.622;16.556;2023-05-07T04:08:17;11.73;;;4.57;;
11004;SDS011;5555;59.622;16.556;2023-05-07T04:10:42;8.20;;;4.67;;
11004;SDS011;5555;59.622;16.556;2023-05-07T04:13:08;9.33;;;4.47;;
11004;SDS011;5555;59.622;16.556;2023-05-07T04:15:34;9.00;;;4.40;;
11004;SDS011;5555;59.622;16.556;2023-05-07T04:18:01;10.53;;;4.43;;
11004;SDS011;5555;59.622;16.556;2023-05-07T04:20:26;7.20;;;4.40;;
11004;SDS011;5555;59.622;16.556;2023-05-07T04:22:52;9.00;;;4.70;;
11004;SDS011;5555;59.622;16.556;2023-05-07T04:25:18;5.07;;;4.17;;
11004;SDS011;5555;59.622;16.556;2023-05-07T04:27:43;4.93;;;4.43;;
11004;SDS011;5555;59.622;16.556;2023-05-07T04:30:09;6.50;;;4.37;;
11004;SDS011;5555;59.622;16.556;2023-05-07T04:32:35;4.37;;;3.97;;
11004;SDS011;5555;59.622;16.556;2023-05-07T04:35:02;6.17;;;3.83;;
11004;SDS011;5555;59.622;16.556;2023-05-07T04:37:28;6.57;;;4.10;;
11004;SDS011;5555;59.622;16.556;2023-05-07T04:39:54;4.87;;;4.07;;
11004;SDS011;5555;59.622;16.556;2023-05-07T04:42:19;4.43;;;4.00;;
11004;SDS011;5555;59.622;16.556;2023-05-07T04:44:45;6.27;;;3.80;;
11004;SDS011;5555;59.622;16.556;2023-05-07T04:47:11;5.00;;;4.40;;
11004;SDS011;5555;59.622;16.556;2023-05-07T04:49:40;4.17;;;3.87;;
11004;SDS011;5555;59.622;16.556;2023-05-07T04:52:05;3.60;;;3.30;;
11004;SDS011;5555;59.622;16.556;2023-05-07T04:54:31;3.40;;;3.10;;
11004;SDS011;5555;59.622;16.556;2023-05-07T04:56:56;4.13;;;3.73;;
11004;SDS011;5555;59.622;16.556;2023-05-07T04:59:22;4.97;;;3.27;;
11004;SDS011;5555;59.622;16.556;2023-05-07T05:01:48;3.63;;;3.33;;
11004;SDS011;5555;59.622;16.556;2023-05-07T05:04:13;5.33;;;3.93;;
11004;SDS011;5555;59.622;16.556;2023-05-07T05:06:39;4.57;;;4.00;;
11004;SDS011;5555;59.622;16.556;2023-05-07T05:09:05;4.40;;;4.00;;
11004;SDS011;5555;59.622;16.556;2023-05-07T05:11:31;3.97;;;3.57;;
11004;SDS011;5555;59.622;16.556;2023-05-07T05:13:58;5.63;;;3.87;;
11004;SDS011;5555;59.622;16.556;2023-05-07T05:16:24;5.67;;;4.17;;
11004;SDS011;5555;59.622;16.556;2023-05-07T05:18:50;4.73;;;4.33;;
11004;SDS011;5555;59.622;16.556;2023-05-07T05:21:17;5.40;;;3.70;;
11004;SDS011;5555;59.622;16.556;2023-05-07T05:23:42;9.13;;;4.00;;
11004;SDS011;5555;59.622;16.556;2023-05-07T05:26:08;4.30;;;3.93;;
11004;SDS011;5555;59.622;16.556;2023-05-07T05:28:34;3.80;;;3.50;;
11004;SDS011;5555;59.622;16.556;2023-05-07T05:30:59;5.13;;;3.80;;
11004;SDS011;5555;59.622;16.556;2023-05-07T05:33:25;4.67;;;3.57;;
11004;SDS011;5555;59.622;16.556;2023-05-07T05:35:51;4.57;;;4.00;;
11004;SDS011;5555;59.622;16.556;2023-05-07T05:38:16;4.80;;;3.83;;
11004;SDS011;5555;59.622;16.556;2023-05-07T05:40:42;3.90;;;3.50;;
11004;SDS011;5555;59.622;16.556;2023-05-07T05:43:07;3.27;;;3.03;;
11004;SDS011;5555;59.622;16.556;2023-05-07T05:45:33;4.03;;;3.60;;
11004;SDS011;5555;59.622;16.556;2023-05-07T05:47:59;4.07;;;3.03;;
11004;SDS011;5555;59.622;16.556;2023-05-07T05:50:25;4.50;;;3.73;;
11004;SDS011;5555;59.622;16.556;2023-05-07T05:52:50;4.67;;;3.53;;
11004;SDS011;5555;59.622;16.556;2023-05-07T05:55:16;4.10;;;3.40;;
11004;SDS011;5555;59.622;16.556;2023-05-07T05:57:41;5.17;;;3.53;;
11004;SDS011;5555;59.622;16.556;2023-05-07T06:00:07;4.43;;;3.30;;
11004;SDS011;5555;59.622;16.556;2023-05-07T06:02:34;5.80;;;3.40;;
11004;SDS011;5555;59.622;16.556;2023-05-07T06:04:59;4.90;;;3.27;;
11004;SDS011;5555;59.622;16.556;2023-05-07T06:07:25;3.93;;;3.43;;
11004;SDS011;5555;59.622;16.556;2023-05-07T06:09:50;3.83;;;3.17;;
11004;SDS011;5555;59.622;16.556;2023-05-07T06:12:16;3.53;;;3.23;;
11004;SDS011;5555;59.622;16.556;2023-05-07T06:14:42;6.93;;;3.47;;
11004;SDS011;5555;59.622;16.556;2023-05-07T06:17:08;4.90;;;3.33;;
11004;SDS011;5555;59.622;16.556;2023-05-07T06:19:34;4.77;;;3.33;;
11004;SDS011;5555;59.622;16.556;2023-05-07T06:22:00;4.23;;;3.40;;
11004;SDS011;5555;59.622;16.556;2023-05-07T06:24:26;3.67;;;3.00;;
11004;SDS011;5555;59.622;16.556;2023-05-07T06:26:52;3.60;;;3.30;;
11004;SDS011;5555;59.622;16.556;2023-05-07T06:29:18;4.33;;;2.80;;
11004;SDS011;5555;59.622;16.556;2023-05-07T06:31:43;3.47;;;2.83;;
11004;SDS011;5555;59.622;16.556;2023-05-07T06:34:09;3.67;;;2.77;;
11004;SDS011;5555;59.622;16.556;2023-05-07T06:36:39;3.20;;;2.77;;
11004;SDS011;5555;59.622;16.556;2023-05-07T06:39:07;3.10;;;2.80;;
11004;SDS011;5555;59.622;16.556;2023-05-07T06:41:33;3.80;;;3.10;;
11004;SDS011;5555;59.622;16.556;2023-05-07T06:43:59;3.23;;;2.73;;
11004;SDS011;5555;59.622;16.556;2023-05-07T06:46:25;3.30;;;2.97;;
11004;SDS011;5555;59.622;16.556;2023-05-07T06:48:50;3.17;;;2.87;;
11004;SDS011;5555;59.622;16.556;2023-05-07T06:51:17;3.47;;;2.93;;
11004;SDS011;5555;59.622;16.556;2023-05-07T06:53:42;3.77;;;2.60;;
11004;SDS011;5555;59.622;16.556;2023-05-07T06:56:08;3.50;;;2.67;;
11004;SDS011;5555;59.622;16.556;2023-05-07T06:58:33;3.03;;;2.70;;
11004;SDS011;5555;59.622;16.556;2023-05-07T07:00:59;3.97;;;2.80;;
11004;SDS011;5555;59.622;16.556;2023-05-07T07:03:25;2.83;;;2.47;;
11004;SDS011;5555;59.622;16.556;2023-05-07T07:05:54;4.40;;;2.87;;
11004;SDS011;5555;59.622;16.556;2023-05-07T07:08:20;3.27;;;2.23;;
11004;SDS011;5555;59.622;16.556;2023-05-07T07:10:46;4.27;;;2.83;;
11004;SDS011;5555;59.622;16.556;2023-05-07T07:13:12;3.07;;;2.30;;
11004;SDS011;5555;59.622;16.556;2023-05-07T07:15:38;2.57;;;2.20;;
11004;SDS011;5555;59.622;16.556;2023-05-07T07:18:05;3.00;;;2.57;;
11004;SDS011;5555;59.622;16.556;2023-05-07T07:20:30;2.70;;;2.20;;
11004;SDS011;5555;59.622;16.556;2023-05-07T07:22:56;2.57;;;2.20;;
11004;SDS011;5555;59.622;16.556;2023-05-07T07:25:22;4.30;;;2.30;;
11004;SDS011;5555;59.622;16.556;2023-05-07T07:27:48;2.33;;;2.13;;
11004;SDS011;5555;59.622;16.556;2023-05-07T07:30:14;3.70;;;2.10;;
11004;SDS011;5555;59.622;16.556;2023-05-07T07:32:40;3.10;;;2.10;;
11004;SDS011;5555;59.622;16.556;2023-05-07T07:35:06;2.07;;;1.87;;
11004;SDS011;5555;59.622;16.556;2023-05-07T07:37:32;3.60;;;2.07;;
11004;SDS011;5555;59.622;16.556;2023-05-07T07:39:57;2.20;;;1.87;;
11004;SDS011;5555;59.622;16.556;2023-05-07T07:42:23;3.73;;;2.07;;
11004;SDS011;5555;59.622;16.556;2023-05-07T07:44:49;2.93;;;2.23;;
11004;SDS011;5555;59.622;16.556;2023-05-07T07:47:15;2.93;;;2.00;;
11004;SDS011;5555;59.622;16.556;2023-05-07T07:49:40;4.10;;;2.30;;
11004;SDS011;5555;59.622;16.556;2023-05-07T07:52:06;3.27;;;2.13;;
11004;SDS011;5555;59.622;16.556;2023-05-07T07:54:32;4.47;;;1.93;;
11004;SDS011;5555;59.622;16.556;2023-05-07T07:56:57;2.90;;;1.80;;
11004;SDS011;5555;59.622;16.556;2023-05-07T07:59:23;2.03;;;1.80;;
11004;SDS011;5555;59.622;16.556;2023-05-07T08:01:49;2.97;;;1.73;;
11004;SDS011;5555;59.622;16.556;2023-05-07T08:04:15;3.20;;;1.93;;
11004;SDS011;5555;59.622;16.556;2023-05-07T08:06:41;2.73;;;1.70;;
11004;SDS011;5555;59.622;16.556;2023-05-07T08:09:07;2.73;;;1.53;;
11004;SDS011;5555;59.622;16.556;2023-05-07T08:11:33;1.83;;;1.60;;
11004;SDS011;5555;59.622;16.556;2023-05-07T08:13:59;1.97;;;1.43;;
11004;SDS011;5555;59.622;16.556;2023-05-07T08:16:25;3.93;;;1.80;;
11004;SDS011;5555;59.622;16.556;2023-05-07T08:18:50;2.83;;;1.63;;
11004;SDS011;5555;59.622;16.556;2023-05-07T08:21:16;2.03;;;1.73;;
11004;SDS011;5555;59.622;16.556;2023-05-07T08:23:42;2.07;;;1.70;;
11004;SDS011;5555;59.622;16.556;2023-05-07T08:26:08;3.20;;;1.40;;
11004;SDS011;5555;59.622;16.556;2023-05-07T08:28:34;2.83;;;1.60;;
11004;SDS011;5555;59.622;16.556;2023-05-07T08:30:59;2.00;;;1.50;;
11004;SDS011;5555;59.622;16.556;2023-05-07T08:33:26;4.43;;;1.50;;
11004;SDS011;5555;59.622;16.556;2023-05-07T08:35:51;2.27;;;1.83;;
11004;SDS011;5555;59.622;16.556;2023-05-07T08:38:17;2.77;;;1.53;;
11004;SDS011;5555;59.622;16.556;2023-05-07T08:40:43;3.53;;;1.90;;
11004;SDS011;5555;59.622;16.556;2023-05-07T08:43:08;2.50;;;1.50;;
11004;SDS011;5555;59.622;16.556;2023-05-07T08:45:37;2.30;;;1.50;;
11004;SDS011;5555;59.622;16.556;2023-05-07T08:48:08;3.23;;;1.60;;
11004;SDS011;5555;59.622;16.556;2023-05-07T08:50:39;3.33;;;1.40;;
11004;SDS011;5555;59.622;16.556;2023-05-07T08:53:05;2.47;;;1.30;;
11004;SDS011;5555;59.622;16.556;2023-05-07T08:55:31;3.33;;;1.70;;
11004;SDS011;5555;59.622;16.556;2023-05-07T08:57:58;1.97;;;1.70;;
11004;SDS011;5555;59.622;16.556;2023-05-07T09:00:24;3.77;;;1.80;;
11004;SDS011;5555;59.622;16.556;2023-05-07T09:02:50;2.13;;;1.37;;
11004;SDS011;5555;59.622;16.556;2023-05-07T09:05:17;3.43;;;2.00;;
11004;SDS011;5555;59.622;16.556;2023-05-07T09:07:42;2.97;;;2.17;;
11004;SDS011;5555;59.622;16.556;2023-05-07T09:10:08;3.20;;;1.63;;
11004;SDS011;5555;59.622;16.556;2023-05-07T09:12:34;1.77;;;1.60;;
11004;SDS011;5555;59.622;16.556;2023-05-07T09:15:01;2.60;;;1.70;;
11004;SDS011;5555;59.622;16.556;2023-05-07T09:17:27;1.60;;;1.50;;
11004;SDS011;5555;59.622;16.556;2023-05-07T09:19:53;3.40;;;1.40;;
11004;SDS011;5555;59.622;16.556;2023-05-07T09:22:19;1.83;;;1.63;;
11004;SDS011;5555;59.622;16.556;2023-05-07T09:24:49;1.77;;;1.60;;
11004;SDS011;5555;59.622;16.556;2023-05-07T09:27:15;2.87;;;1.50;;
11004;SDS011;5555;59.622;16.556;2023-05-07T09:29:43;2.53;;;1.80;;
11004;SDS011;5555;59.622;16.556;2023-05-07T09:32:09;1.37;;;1.27;;
11004;SDS011;5555;59.622;16.556;2023-05-07T09:34:35;3.07;;;1.47;;
11004;SDS011;5555;59.622;16.556;2023-05-07T09:37:02;2.83;;;1.63;;
11004;SDS011;5555;59.622;16.556;2023-05-07T09:39:38;3.10;;;1.40;;
11004;SDS011;5555;59.622;16.556;2023-05-07T09:42:05;2.83;;;1.43;;
11004;SDS011;5555;59.622;16.556;2023-05-07T09:44:31;2.07;;;1.33;;
11004;SDS011;5555;59.622;16.556;2023-05-07T09:46:59;1.57;;;1.20;;
11004;SDS011;5555;59.622;16.556;2023-05-07T09:49:28;1.37;;;1.10;;
11004;SDS011;5555;59.622;16.556;2023-05-07T09:51:55;3.80;;;1.50;;
11004;SDS011;5555;59.622;16.556;2023-05-07T09:54:21;2.40;;;1.33;;
11004;SDS011;5555;59.622;16.556;2023-05-07T09:56:48;3.30;;;1.30;;
11004;SDS011;5555;59.622;16.556;2023-05-07T09:59:14;2.10;;;1.00;;
11004;SDS011;5555;59.622;16.556;2023-05-07T10:01:41;1.90;;;1.10;;
11004;SDS011;5555;59.622;16.556;2023-05-07T10:04:08;3.67;;;1.47;;
11004;SDS011;5555;59.622;16.556;2023-05-07T10:06:35;1.47;;;1.30;;
11004;SDS011;5555;59.622;16.556;2023-05-07T10:09:01;3.33;;;1.27;;
11004;SDS011;5555;59.622;16.556;2023-05-07T10:11:27;1.97;;;1.10;;
11004;SDS011;5555;59.622;16.556;2023-05-07T10:13:54;1.07;;;1.00;;
11004;SDS011;5555;59.622;16.556;2023-05-07T10:16:21;2.90;;;1.30;;
11004;SDS011;5555;59.622;16.556;2023-05-07T10:18:47;5.20;;;1.40;;
11004;SDS011;5555;59.622;16.556;2023-05-07T10:23:54;3.80;;;1.27;;
11004;SDS011;5555;59.622;16.556;2023-05-07T10:26:24;2.10;;;1.20;;
11004;SDS011;5555;59.622;16.556;2023-05-07T10:28:55;3.70;;;0.93;;
11004;SDS011;5555;59.622;16.556;2023-05-07T10:34:16;4.33;;;1.10;;
11004;SDS011;5555;59.622;16.556;2023-05-07T10:36:47;2.90;;;0.90;;
11004;SDS011;5555;59.622;16.556;2023-05-07T10:39:15;1.63;;;1.13;;
11004;SDS011;5555;59.622;16.556;2023-05-07T10:41:40;1.23;;;1.03;;
11004;SDS011;5555;59.622;16.556;2023-05-07T10:44:06;2.27;;;1.13;;
11004;SDS011;5555;59.622;16.556;2023-05-07T10:46:32;2.23;;;1.30;;
11004;SDS011;5555;59.622;16.556;2023-05-07T10:51:26;1.13;;;0.90;;
11004;SDS011;5555;59.622;16.556;2023-05-07T10:56:35;1.10;;;0.80;;
11004;SDS011;5555;59.622;16.556;2023-05-07T11:01:59;3.30;;;1.10;;
11004;SDS011;5555;59.622;16.556;2023-05-07T11:04:31;1.87;;;1.10;;
11004;SDS011;5555;59.622;16.556;2023-05-07T11:07:23;2.60;;;1.07;;
11004;SDS011;5555;59.622;16.556;2023-05-07T11:15:01;0.80;;;0.80;;
11004;SDS011;5555;59.622;16.556;2023-05-07T11:17:27;1.27;;;1.00;;
11004;SDS011;5555;59.622;16.556;2023-05-07T11:19:56;1.10;;;0.90;;
11004;SDS011;5555;59.622;16.556;2023-05-07T11:25:01;2.83;;;1.00;;
11004;SDS011;5555;59.622;16.556;2023-05-07T11:27:28;1.93;;;0.97;;
11004;SDS011;5555;59.622;16.556;2023-05-07T11:29:54;1.80;;;1.00;;
11004;SDS011;5555;59.622;16.556;2023-05-07T11:34:56;0.80;;;0.80;;
11004;SDS011;5555;59.622;16.556;2023-05-07T11:37:24;2.83;;;0.90;;
11004;SDS011;5555;59.622;16.556;2023-05-07T11:39:52;1.07;;;0.90;;
11004;SDS011;5555;59.622;16.556;2023-05-07T11:42:29;2.73;;;0.90;;
11004;SDS011;5555;59.622;16.556;2023-05-07T11:44:56;1.60;;;1.10;;
11004;SDS011;5555;59.622;16.556;2023-05-07T11:47:23;2.13;;;0.90;;
11004;SDS011;5555;59.622;16.556;2023-05-07T11:49:53;2.60;;;0.80;;
11004;SDS011;5555;59.622;16.556;2023-05-07T11:52:20;2.03;;;0.70;;
11004;SDS011;5555;59.622;16.556;2023-05-07T11:54:51;3.20;;;0.90;;
11004;SDS011;5555;59.622;16.556;2023-05-07T11:57:18;1.10;;;0.80;;
11004;SDS011;5555;59.622;16.556;2023-05-07T11:59:44;2.33;;;0.80;;
11004;SDS011;5555;59.622;16.556;2023-05-07T12:02:13;0.97;;;0.60;;
11004;SDS011;5555;59.622;16.556;2023-05-07T12:04:40;1.80;;;0.80;;
11004;SDS011;5555;59.622;16.556;2023-05-07T12:07:06;2.55;;;0.82;;
11004;SDS011;5555;59.622;16.556;2023-05-07T12:09:40;1.73;;;0.70;;
11004;SDS011;5555;59.622;16.556;2023-05-07T12:12:07;2.15;;;0.90;;
11004;SDS011;5555;59.622;16.556;2023-05-07T12:14:37;1.15;;;0.75;;
11004;SDS011;5555;59.622;16.556;2023-05-07T12:17:04;1.77;;;0.70;;
11004;SDS011;5555;59.622;16.556;2023-05-07T12:19:30;0.98;;;0.60;;
11004;SDS011;5555;59.622;16.556;2023-05-07T12:21:56;2.00;;;0.60;;
11004;SDS011;5555;59.622;16.556;2023-05-07T12:24:22;1.60;;;0.60;;
11004;SDS011;5555;59.622;16.556;2023-05-07T12:26:48;2.40;;;0.52;;
11004;SDS011;5555;59.622;16.556;2023-05-07T12:29:14;1.70;;;0.60;;
11004;SDS011;5555;59.622;16.556;2023-05-07T12:31:41;1.58;;;0.80;;
11004;SDS011;5555;59.622;16.556;2023-05-07T12:34:07;1.42;;;0.57;;
11004;SDS011;5555;59.622;16.556;2023-05-07T12:36:36;1.50;;;0.70;;
11004;SDS011;5555;59.622;16.556;2023-05-07T12:39:08;2.55;;;0.73;;
11004;SDS011;5555;59.622;16.556;2023-05-07T12:44:23;2.92;;;0.70;;
11004;SDS011;5555;59.622;16.556;2023-05-07T12:46:58;0.90;;;0.70;;
11004;SDS011;5555;59.622;16.556;2023-05-07T12:49:26;2.25;;;0.80;;
11004;SDS011;5555;59.622;16.556;2023-05-07T12:51:53;1.02;;;0.73;;
11004;SDS011;5555;59.622;16.556;2023-05-07T12:54:32;1.63;;;0.73;;
11004;SDS011;5555;59.622;16.556;2023-05-07T12:57:03;2.65;;;0.70;;
11004;SDS011;5555;59.622;16.556;2023-05-07T12:59:34;1.30;;;0.70;;
11004;SDS011;5555;59.622;16.556;2023-05-07T13:02:05;1.75;;;0.80;;
11004;SDS011;5555;59.622;16.556;2023-05-07T13:04:32;2.38;;;0.70;;
11004;SDS011;5555;59.622;16.556;2023-05-07T13:06:58;2.40;;;0.63;;
11004;SDS011;5555;59.622;16.556;2023-05-07T13:09:24;3.28;;;0.60;;
11004;SDS011;5555;59.622;16.556;2023-05-07T13:11:50;3.38;;;1.00;;
11004;SDS011;5555;59.622;16.556;2023-05-07T13:14:16;0.95;;;0.50;;
11004;SDS011;5555;59.622;16.556;2023-05-07T13:16:41;1.48;;;0.88;;
11004;SDS011;5555;59.622;16.556;2023-05-07T13:19:07;2.13;;;0.60;;
11004;SDS011;5555;59.622;16.556;2023-05-07T13:21:33;4.00;;;0.70;;
11004;SDS011;5555;59.622;16.556;2023-05-07T13:23:59;8.88;;;1.33;;
11004;SDS011;5555;59.622;16.556;2023-05-07T13:26:25;0.90;;;0.50;;
11004;SDS011;5555;59.622;16.556;2023-05-07T13:28:51;2.75;;;0.70;;
11004;SDS011;5555;59.622;16.556;2023-05-07T13:31:20;1.05;;;0.52;;
11004;SDS011;5555;59.622;16.556;2023-05-07T13:33:46;1.52;;;0.73;;
11004;SDS011;5555;59.622;16.556;2023-05-07T13:36:11;1.08;;;0.60;;
11004;SDS011;5555;59.622;16.556;2023-05-07T13:38:37;3.08;;;0.55;;
11004;SDS011;5555;59.622;16.556;2023-05-07T13:41:04;2.88;;;0.70;;
11004;SDS011;5555;59.622;16.556;2023-05-07T13:43:29;2.28;;;0.70;;
11004;SDS011;5555;59.622;16.556;2023-05-07T13:45:56;1.70;;;0.85;;
11004;SDS011;5555;59.622;16.556;2023-05-07T13:48:22;3.47;;;0.70;;
11004;SDS011;5555;59.622;16.556;2023-05-07T13:50:47;0.98;;;0.60;;
11004;SDS011;5555;59.622;16.556;2023-05-07T13:53:13;2.83;;;0.65;;
11004;SDS011;5555;59.622;16.556;2023-05-07T13:55:42;1.60;;;0.52;;
11004;SDS011;5555;59.622;16.556;2023-05-07T13:58:08;1.13;;;0.82;;
11004;SDS011;5555;59.622;16.556;2023-05-07T14:00:34;2.85;;;0.70;;
11004;SDS011;5555;59.622;16.556;2023-05-07T14:03:00;1.65;;;0.60;;
11004;SDS011;5555;59.622;16.556;2023-05-07T14:05:25;0.82;;;0.50;;
11004;SDS011;5555;59.622;16.556;2023-05-07T14:07:54;3.38;;;0.70;;
11004;SDS011;5555;59.622;16.556;2023-05-07T14:10:21;3.08;;;0.77;;
11004;SDS011;5555;59.622;16.556;2023-05-07T14:12:47;1.23;;;0.87;;
11004;SDS011;5555;59.622;16.556;2023-05-07T14:15:13;1.57;;;0.70;;
11004;SDS011;5555;59.622;16.556;2023-05-07T14:17:39;1.58;;;0.50;;
11004;SDS011;5555;59.622;16.556;2023-05-07T14:20:05;2.10;;;0.45;;
11004;SDS011;5555;59.622;16.556;2023-05-07T14:22:31;3.00;;;0.80;;
11004;SDS011;5555;59.622;16.556;2023-05-07T14:24:57;4.65;;;1.00;;
11004;SDS011;5555;59.622;16.556;2023-05-07T14:27:23;2.53;;;0.50;;
11004;SDS011;5555;59.622;16.556;2023-05-07T14:29:48;1.42;;;0.50;;
11004;SDS011;5555;59.622;16.556;2023-05-07T14:32:16;1.95;;;0.52;;
11004;SDS011;5555;59.622;16.556;2023-05-07T14:34:43;1.52;;;0.60;;
11004;SDS011;5555;59.622;16.556;2023-05-07T14:37:09;2.55;;;0.70;;
11004;SDS011;5555;59.622;16.556;2023-05-07T14:39:35;0.80;;;0.47;;
11004;SDS011;5555;59.622;16.556;2023-05-07T14:42:00;1.20;;;0.68;;
11004;SDS011;5555;59.622;16.556;2023-05-07T14:44:27;1.23;;;0.60;;
11004;SDS011;5555;59.622;16.556;2023-05-07T14:46:52;1.55;;;0.80;;
11004;SDS011;5555;59.622;16.556;2023-05-07T14:49:18;5.43;;;0.68;;
11004;SDS011;5555;59.622;16.556;2023-05-07T14:51:44;2.42;;;0.60;;
11004;SDS011;5555;59.622;16.556;2023-05-07T14:54:10;1.75;;;0.80;;
11004;SDS011;5555;59.622;16.556;2023-05-07T14:56:36;1.25;;;0.60;;
11004;SDS011;5555;59.622;16.556;2023-05-07T14:59:02;1.35;;;0.75;;
11004;SDS011;5555;59.622;16.556;2023-05-07T15:01:28;2.15;;;0.70;;
11004;SDS011;5555;59.622;16.556;2023-05-07T15:03:54;1.85;;;0.47;;
11004;SDS011;5555;59.622;16.556;2023-05-07T15:06:20;1.60;;;0.73;;
11004;SDS011;5555;59.622;16.556;2023-05-07T15:08:47;1.55;;;0.50;;
11004;SDS011;5555;59.622;16.556;2023-05-07T15:11:13;2.30;;;0.60;;
11004;SDS011;5555;59.622;16.556;2023-05-07T15:13:39;2.47;;;1.00;;